sensor_id;sensor_type;location;lat;lon;timestamp;pressure;altitude;pressure_sealevel;temperature;humidity
6833;BME280;3454;42.654;23.378;2024-01-27T00:00:35;63321.34;;;3.82;82.87
6833;BME280;3454;42.654;23.378;2024-01-27T00:03:00;63310.78;;;3.70;83.45
6833;BME280;3454;42.654;23.378;2024-01-27T00:05:27;63305.59;;;3.68;83.83
6833;BME280;3454;42.654;23.378;2024-01-27T00:07:53;63312.41;;;3.72;83.38
6833;BME280;3454;42.654;23.378;2024-01-27T00:10:19;63305.06;;;3.67;82.98
6833;BME280;3454;42.654;23.378;2024-01-27T00:12:44;63315.38;;;3.77;82.37
6833;BME280;3454;42.654;23.378;2024-01-27T00:15:10;63322.75;;;3.81;81.83
6833;BME280;3454;42.654;23.378;2024-01-27T00:17:36;63320.03;;;3.79;81.61
6833;BME280;3454;42.654;23.378;2024-01-27T00:20:02;63321.66;;;3.80;82.35
6833;BME280;3454;42.654;23.378;2024-01-27T00:22:28;63315.91;;;3.77;81.18
6833;BME280;3454;42.654;23.378;2024-01-27T00:24:53;63322.75;;;3.81;81.42
6833;BME280;3454;42.654;23.378;2024-01-27T00:27:19;63329.06;;;3.85;81.29
6833;BME280;3454;42.654;23.378;2024-01-27T00:29:44;63320.03;;;3.79;81.52
6833;BME280;3454;42.654;23.378;2024-01-27T00:32:10;63327.34;;;3.88;81.58
6833;BME280;3454;42.654;23.378;2024-01-27T00:34:36;63340.06;;;4.02;81.97
6833;BME280;3454;42.654;23.378;2024-01-27T00:37:02;63353.19;;;4.09;81.53
6833;BME280;3454;42.654;23.378;2024-01-27T00:39:28;63336.03;;;3.96;82.48
6833;BME280;3454;42.654;23.378;2024-01-27T00:41:53;63347.44;;;4.06;83.15
6833;BME280;3454;42.654;23.378;2024-01-27T00:44:20;63345.56;;;4.02;81.94
6833;BME280;3454;42.654;23.378;2024-01-27T00:46:46;63349.06;;;4.08;83.10
6833;BME280;3454;42.654;23.378;2024-01-27T00:49:11;63368.97;;;4.24;85.10
6833;BME280;3454;42.654;23.378;2024-01-27T00:51:37;63370.28;;;4.28;84.55
6833;BME280;3454;42.654;23.378;2024-01-27T00:54:02;63353.97;;;4.12;82.57
6833;BME280;3454;42.654;23.378;2024-01-27T00:56:28;63361.34;;;4.17;80.65
6833;BME280;3454;42.654;23.378;2024-01-27T00:58:53;63358.53;;;4.19;80.87
6833;BME280;3454;42.654;23.378;2024-01-27T01:01:19;63358.09;;;4.14;81.63
6833;BME280;3454;42.654;23.378;2024-01-27T01:03:44;63371.16;;;4.26;80.40
6833;BME280;3454;42.654;23.378;2024-01-27T01:06:11;63404.28;;;4.57;78.50
6833;BME280;3454;42.654;23.378;2024-01-27T01:08:36;63383.00;;;4.42;78.54
6833;BME280;3454;42.654;23.378;2024-01-27T01:11:02;63387.44;;;4.41;82.79
6833;BME280;3454;42.654;23.378;2024-01-27T01:13:27;63357.53;;;4.13;78.64
6833;BME280;3454;42.654;23.378;2024-01-27T01:15:53;63358.84;;;4.17;79.30
6833;BME280;3454;42.654;23.378;2024-01-27T01:18:19;63356.13;;;4.14;80.17
6833;BME280;3454;42.654;23.378;2024-01-27T01:20:44;63354.28;;;4.10;80.90
6833;BME280;3454;42.654;23.378;2024-01-27T01:23:10;63353.97;;;4.12;81.92
6833;BME280;3454;42.654;23.378;2024-01-27T01:25:35;63352.88;;;4.11;82.26
6833;BME280;3454;42.654;23.378;2024-01-27T01:28:01;63352.34;;;4.11;82.92
6833;BME280;3454;42.654;23.378;2024-01-27T01:30:26;63361.03;;;4.19;82.57
6833;BME280;3454;42.654;23.378;2024-01-27T01:32:52;63361.91;;;4.17;84.07
6833;BME280;3454;42.654;23.378;2024-01-27T01:35:17;63366.47;;;4.24;83.42
6833;BME280;3454;42.654;23.378;2024-01-27T01:37:43;63369.50;;;4.24;85.80
6833;BME280;3454;42.654;23.378;2024-01-27T01:40:09;63378.75;;;4.33;83.55
6833;BME280;3454;42.654;23.378;2024-01-27T01:42:34;63377.34;;;4.34;83.26
6833;BME280;3454;42.654;23.378;2024-01-27T01:45:00;63387.13;;;4.43;82.11
6833;BME280;3454;42.654;23.378;2024-01-27T01:47:26;63408.66;;;4.61;81.45
6833;BME280;3454;42.654;23.378;2024-01-27T01:49:52;63401.81;;;4.57;80.90
6833;BME280;3454;42.654;23.378;2024-01-27T01:52:18;63424.97;;;4.76;79.69
6833;BME280;3454;42.654;23.378;2024-01-27T01:54:49;63430.41;;;4.81;79.37
6833;BME280;3454;42.654;23.378;2024-01-27T01:57:15;63430.09;;;4.83;78.78
6833;BME280;3454;42.654;23.378;2024-01-27T01:59:41;63440.22;;;4.90;78.24
6833;BME280;3454;42.654;23.378;2024-01-27T02:02:08;63430.63;;;4.83;79.48
6833;BME280;3454;42.654;23.378;2024-01-27T02:04:44;63417.34;;;4.69;81.67
6833;BME280;3454;42.654;23.378;2024-01-27T02:07:11;63398.31;;;4.51;81.68
6833;BME280;3454;42.654;23.378;2024-01-27T02:09:37;63404.28;;;4.57;81.07
6833;BME280;3454;42.654;23.378;2024-01-27T02:12:04;63389.06;;;4.43;80.16
6833;BME280;3454;42.654;23.378;2024-01-27T02:14:48;63370.59;;;4.25;80.85
6833;BME280;3454;42.654;23.378;2024-01-27T02:17:14;63360.28;;;4.16;82.89
6833;BME280;3454;42.654;23.378;2024-01-27T02:19:40;63349.41;;;4.06;83.91
6833;BME280;3454;42.654;23.378;2024-01-27T02:22:06;63332.84;;;3.88;84.57
6833;BME280;3454;42.654;23.378;2024-01-27T02:24:31;63336.34;;;3.94;84.56
6833;BME280;3454;42.654;23.378;2024-01-27T02:26:57;63342.88;;;4.00;85.89
6833;BME280;3454;42.654;23.378;2024-01-27T02:29:22;63351.56;;;4.08;85.79
6833;BME280;3454;42.654;23.378;2024-01-27T02:31:48;63344.19;;;4.03;84.14
6833;BME280;3454;42.654;23.378;2024-01-27T02:34:14;63328.66;;;3.91;84.31
6833;BME280;3454;42.654;23.378;2024-01-27T02:36:39;63324.38;;;3.83;86.70
6833;BME280;3454;42.654;23.378;2024-01-27T02:39:05;63294.19;;;3.57;87.43
6833;BME280;3454;42.654;23.378;2024-01-27T02:41:30;63250.81;;;3.12;92.90
6833;BME280;3454;42.654;23.378;2024-01-27T02:44:00;63271.13;;;3.33;90.20
6833;BME280;3454;42.654;23.378;2024-01-27T02:46:26;63274.09;;;3.38;93.63
6833;BME280;3454;42.654;23.378;2024-01-27T02:48:52;63295.03;;;3.56;89.90
6833;BME280;3454;42.654;23.378;2024-01-27T02:51:20;63273.00;;;3.37;91.50
6833;BME280;3454;42.654;23.378;2024-01-27T02:53:46;63272.16;;;3.39;92.99
6833;BME280;3454;42.654;23.378;2024-01-27T02:56:11;63274.09;;;3.38;91.83
6833;BME280;3454;42.654;23.378;2024-01-27T02:58:37;63261.59;;;3.27;93.17
6833;BME280;3454;42.654;23.378;2024-01-27T03:01:02;63258.66;;;3.22;94.14
6833;BME280;3454;42.654;23.378;2024-01-27T03:03:28;63249.41;;;3.13;95.66
6833;BME280;3454;42.654;23.378;2024-01-27T03:05:54;63266.78;;;3.29;95.91
6833;BME280;3454;42.654;23.378;2024-01-27T03:08:20;63268.66;;;3.33;95.79
6833;BME280;3454;42.654;23.378;2024-01-27T03:10:45;63277.88;;;3.42;94.68
6833;BME280;3454;42.654;23.378;2024-01-27T03:13:11;63255.41;;;3.19;95.59
6833;BME280;3454;42.654;23.378;2024-01-27T03:15:36;63255.94;;;3.19;97.51
6833;BME280;3454;42.654;23.378;2024-01-27T03:18:03;63243.13;;;3.10;97.17
6833;BME280;3454;42.654;23.378;2024-01-27T03:20:29;63237.16;;;3.04;97.52
6833;BME280;3454;42.654;23.378;2024-01-27T03:22:57;63230.66;;;2.98;99.44
6833;BME280;3454;42.654;23.378;2024-01-27T03:25:24;63230.41;;;2.96;100.00
6833;BME280;3454;42.654;23.378;2024-01-27T03:27:51;63243.75;;;3.06;97.36
6833;BME280;3454;42.654;23.378;2024-01-27T03:30:17;63236.38;;;3.01;96.86
6833;BME280;3454;42.654;23.378;2024-01-27T03:32:43;63253.22;;;3.17;96.63
6833;BME280;3454;42.654;23.378;2024-01-27T03:35:09;63259.19;;;3.22;94.23
6833;BME280;3454;42.654;23.378;2024-01-27T03:37:34;63288.19;;;3.52;91.98
6833;BME280;3454;42.654;23.378;2024-01-27T03:40:01;63314.06;;;3.73;92.35
6833;BME280;3454;42.654;23.378;2024-01-27T03:42:26;63333.88;;;3.94;91.27
6833;BME280;3454;42.654;23.378;2024-01-27T03:44:52;63348.31;;;4.05;92.45
6833;BME280;3454;42.654;23.378;2024-01-27T03:47:19;63358.63;;;4.14;95.78
6833;BME280;3454;42.654;23.378;2024-01-27T03:49:45;63365.69;;;4.21;96.66
6833;BME280;3454;42.654;23.378;2024-01-27T03:52:11;63367.88;;;4.23;100.00
6833;BME280;3454;42.654;23.378;2024-01-27T03:54:40;63374.63;;;4.32;100.00
6833;BME280;3454;42.654;23.378;2024-01-27T03:57:05;63379.84;;;4.34;100.00
6833;BME280;3454;42.654;23.378;2024-01-27T03:59:31;63389.06;;;4.43;100.00
6833;BME280;3454;42.654;23.378;2024-01-27T04:01:57;63373.31;;;4.28;100.00
6833;BME280;3454;42.654;23.378;2024-01-27T04:04:22;63387.13;;;4.43;100.00
6833;BME280;3454;42.654;23.378;2024-01-27T04:06:49;63400.50;;;4.53;100.00
6833;BME280;3454;42.654;23.378;2024-01-27T04:09:15;63385.50;;;4.42;100.00
6833;BME280;3454;42.654;23.378;2024-01-27T04:11:41;63376.25;;;4.33;100.00
6833;BME280;3454;42.654;23.378;2024-01-27T04:14:06;63395.28;;;4.51;100.00
6833;BME280;3454;42.654;23.378;2024-01-27T04:16:33;63382.78;;;4.39;100.00
6833;BME280;3454;42.654;23.378;2024-01-27T04:18:59;63381.38;;;4.40;100.00
6833;BME280;3454;42.654;23.378;2024-01-27T04:21:25;63401.59;;;4.54;100.00
6833;BME280;3454;42.654;23.378;2024-01-27T04:23:50;63419.00;;;4.70;100.00
6833;BME280;3454;42.654;23.378;2024-01-27T04:26:16;63417.25;;;4.73;100.00
6833;BME280;3454;42.654;23.378;2024-01-27T04:28:41;63419.44;;;4.75;100.00
6833;BME280;3454;42.654;23.378;2024-01-27T04:31:07;63425.22;;;4.78;100.00
6833;BME280;3454;42.654;23.378;2024-01-27T04:33:33;63398.22;;;4.56;100.00
6833;BME280;3454;42.654;23.378;2024-01-27T04:35:58;63424.97;;;4.76;100.00
6833;BME280;3454;42.654;23.378;2024-01-27T04:38:24;63441.28;;;4.91;100.00
6833;BME280;3454;42.654;23.378;2024-01-27T04:40:50;63437.16;;;4.89;100.00
6833;BME280;3454;42.654;23.378;2024-01-27T04:43:17;63409.75;;;4.62;100.00
6833;BME280;3454;42.654;23.378;2024-01-27T04:45:44;63395.81;;;4.51;100.00
6833;BME280;3454;42.654;23.378;2024-01-27T04:48:09;63423.56;;;4.77;100.00
6833;BME280;3454;42.654;23.378;2024-01-27T04:50:35;63436.09;;;4.88;100.00
6833;BME280;3454;42.654;23.378;2024-01-27T04:53:01;63414.09;;;4.66;100.00
6833;BME280;3454;42.654;23.378;2024-01-27T04:55:27;63395.06;;;4.48;100.00
6833;BME280;3454;42.654;23.378;2024-01-27T04:57:53;63399.75;;;4.50;100.00
6833;BME280;3454;42.654;23.378;2024-01-27T05:00:19;63427.38;;;4.80;100.00
6833;BME280;3454;42.654;23.378;2024-01-27T05:02:45;63427.91;;;4.81;100.00
6833;BME280;3454;42.654;23.378;2024-01-27T05:05:11;63430.63;;;4.83;100.00
6833;BME280;3454;42.654;23.378;2024-01-27T05:07:38;63449.47;;;4.98;100.00
6833;BME280;3454;42.654;23.378;2024-01-27T05:10:04;63432.59;;;4.83;100.00
6833;BME280;3454;42.654;23.378;2024-01-27T05:12:30;63431.28;;;4.79;100.00
6833;BME280;3454;42.654;23.378;2024-01-27T05:14:56;63444.56;;;4.94;100.00
6833;BME280;3454;42.654;23.378;2024-01-27T05:17:22;63475.25;;;5.25;100.00
6833;BME280;3454;42.654;23.378;2024-01-27T05:19:49;63486.47;;;5.33;100.00
6833;BME280;3454;42.654;23.378;2024-01-27T05:22:15;63480.38;;;5.32;100.00
6833;BME280;3454;42.654;23.378;2024-01-27T05:24:41;63473.97;;;5.21;100.00
6833;BME280;3454;42.654;23.378;2024-01-27T05:27:06;63462.53;;;5.10;100.00
6833;BME280;3454;42.654;23.378;2024-01-27T05:29:32;63469.81;;;5.20;100.00
6833;BME280;3454;42.654;23.378;2024-01-27T05:31:58;63469.06;;;5.17;100.00
6833;BME280;3454;42.654;23.378;2024-01-27T05:34:24;63460.34;;;5.08;100.00
6833;BME280;3454;42.654;23.378;2024-01-27T05:36:50;63465.13;;;5.18;100.00
6833;BME280;3454;42.654;23.378;2024-01-27T05:39:15;63444.00;;;4.93;100.00
6833;BME280;3454;42.654;23.378;2024-01-27T05:41:41;63411.38;;;4.63;100.00
6833;BME280;3454;42.654;23.378;2024-01-27T05:44:07;63412.69;;;4.67;100.00
6833;BME280;3454;42.654;23.378;2024-01-27T05:46:33;63427.69;;;4.78;100.00
6833;BME280;3454;42.654;23.378;2024-01-27T05:48:59;63455.44;;;5.04;100.00
6833;BME280;3454;42.654;23.378;2024-01-27T05:51:28;63468.19;;;5.18;100.00
6833;BME280;3454;42.654;23.378;2024-01-27T05:53:55;63459.25;;;5.07;100.00
6833;BME280;3454;42.654;23.378;2024-01-27T05:56:20;63456.84;;;5.03;100.00
6833;BME280;3454;42.654;23.378;2024-01-27T05:58:46;63445.63;;;4.95;100.00
6833;BME280;3454;42.654;23.378;2024-01-27T06:01:12;63425.22;;;4.78;100.00
6833;BME280;3454;42.654;23.378;2024-01-27T06:03:41;63417.59;;;4.71;100.00
6833;BME280;3454;42.654;23.378;2024-01-27T06:06:08;63377.56;;;4.37;100.00
6833;BME280;3454;42.654;23.378;2024-01-27T06:08:33;63405.94;;;4.58;100.00
6833;BME280;3454;42.654;23.378;2024-01-27T06:10:59;63392.03;;;4.48;100.00
6833;BME280;3454;42.654;23.378;2024-01-27T06:13:31;63400.19;;;4.55;100.00
6833;BME280;3454;42.654;23.378;2024-01-27T06:15:58;63413.78;;;4.68;100.00
6833;BME280;3454;42.654;23.378;2024-01-27T06:18:25;63441.84;;;4.91;100.00
6833;BME280;3454;42.654;23.378;2024-01-27T06:20:50;63448.69;;;4.95;100.00
6833;BME280;3454;42.654;23.378;2024-01-27T06:23:16;63448.38;;;4.97;100.00
6833;BME280;3454;42.654;23.378;2024-01-27T06:25:42;63395.06;;;4.48;100.00
6833;BME280;3454;42.654;23.378;2024-01-27T06:28:08;63345.56;;;4.02;100.00
6833;BME280;3454;42.654;23.378;2024-01-27T06:30:34;63342.00;;;4.01;100.00
6833;BME280;3454;42.654;23.378;2024-01-27T06:32:59;63359.16;;;4.15;100.00
6833;BME280;3454;42.654;23.378;2024-01-27T06:35:25;63368.41;;;4.23;100.00
6833;BME280;3454;42.654;23.378;2024-01-27T06:37:50;63334.94;;;3.95;100.00
6833;BME280;3454;42.654;23.378;2024-01-27T06:40:21;63333.31;;;3.93;100.00
6833;BME280;3454;42.654;23.378;2024-01-27T06:42:47;63316.78;;;3.76;100.00
6833;BME280;3454;42.654;23.378;2024-01-27T06:45:13;63487.56;;;5.34;100.00
6833;BME280;3454;42.654;23.378;2024-01-27T06:47:38;63626.47;;;6.62;100.00
6833;BME280;3454;42.654;23.378;2024-01-27T06:50:05;63605.75;;;6.43;100.00
6833;BME280;3454;42.654;23.378;2024-01-27T06:52:31;63504.66;;;5.52;100.00
6833;BME280;3454;42.654;23.378;2024-01-27T06:54:56;63474.50;;;5.22;100.00
6833;BME280;3454;42.654;23.378;2024-01-27T06:57:23;63446.97;;;4.98;100.00
6833;BME280;3454;42.654;23.378;2024-01-27T06:59:50;63455.34;;;5.08;100.00
6833;BME280;3454;42.654;23.378;2024-01-27T07:02:24;63453.28;;;5.02;100.00
6833;BME280;3454;42.654;23.378;2024-01-27T07:04:51;63450.78;;;5.02;100.00
6833;BME280;3454;42.654;23.378;2024-01-27T07:07:18;63461.44;;;5.09;100.00
6833;BME280;3454;42.654;23.378;2024-01-27T07:09:46;63458.38;;;5.09;100.00
6833;BME280;3454;42.654;23.378;2024-01-27T07:12:11;63466.31;;;5.14;100.00
6833;BME280;3454;42.654;23.378;2024-01-27T07:14:37;63462.19;;;5.13;100.00
6833;BME280;3454;42.654;23.378;2024-01-27T07:17:05;63476.66;;;5.24;100.00
6833;BME280;3454;42.654;23.378;2024-01-27T07:19:31;63472.00;;;5.22;100.00
6833;BME280;3454;42.654;23.378;2024-01-27T07:21:57;63469.06;;;5.17;100.00
6833;BME280;3454;42.654;23.378;2024-01-27T07:24:23;63468.81;;;5.14;100.00
6833;BME280;3454;42.654;23.378;2024-01-27T07:26:48;63470.13;;;5.18;100.00
6833;BME280;3454;42.654;23.378;2024-01-27T07:29:14;63459.16;;;5.12;100.00
6833;BME280;3454;42.654;23.378;2024-01-27T07:31:40;63449.34;;;5.03;100.00
6833;BME280;3454;42.654;23.378;2024-01-27T07:34:06;63455.44;;;5.04;100.00
6833;BME280;3454;42.654;23.378;2024-01-27T07:36:32;63450.53;;;4.99;100.00
6833;BME280;3454;42.654;23.378;2024-01-27T07:38:58;63447.81;;;4.97;100.00
6833;BME280;3454;42.654;23.378;2024-01-27T07:41:24;63451.31;;;5.02;100.00
6833;BME280;3454;42.654;23.378;2024-01-27T07:43:50;63446.97;;;4.98;100.00
6833;BME280;3454;42.654;23.378;2024-01-27T07:46:16;63440.97;;;4.93;100.00
6833;BME280;3454;42.654;23.378;2024-01-27T07:48:42;63433.13;;;4.83;100.00
6833;BME280;3454;42.654;23.378;2024-01-27T07:51:07;63428.16;;;4.83;100.00
6833;BME280;3454;42.654;23.378;2024-01-27T07:53:33;63430.88;;;4.86;100.00
6833;BME280;3454;42.654;23.378;2024-01-27T07:55:59;63407.81;;;4.62;100.00
6833;BME280;3454;42.654;23.378;2024-01-27T07:58:25;63394.19;;;4.50;100.00
6833;BME280;3454;42.654;23.378;2024-01-27T08:00:51;63407.03;;;4.59;100.00
6833;BME280;3454;42.654;23.378;2024-01-27T08:03:16;63398.56;;;4.54;100.00
6833;BME280;3454;42.654;23.378;2024-01-27T08:05:42;63402.13;;;4.55;100.00
6833;BME280;3454;42.654;23.378;2024-01-27T08:08:07;63399.63;;;4.55;100.00
6833;BME280;3454;42.654;23.378;2024-01-27T08:10:33;63401.28;;;4.56;100.00
6833;BME280;3454;42.654;23.378;2024-01-27T08:12:58;63410.50;;;4.65;100.00
6833;BME280;3454;42.654;23.378;2024-01-27T08:15:24;63408.13;;;4.60;100.00
6833;BME280;3454;42.654;23.378;2024-01-27T08:17:49;63406.16;;;4.61;100.00
6833;BME280;3454;42.654;23.378;2024-01-27T08:20:15;63409.19;;;4.61;100.00
6833;BME280;3454;42.654;23.378;2024-01-27T08:22:40;63416.28;;;4.68;100.00
6833;BME280;3454;42.654;23.378;2024-01-27T08:25:07;63407.03;;;4.59;100.00
6833;BME280;3454;42.654;23.378;2024-01-27T08:27:33;63425.72;;;4.79;100.00
6833;BME280;3454;42.654;23.378;2024-01-27T08:29:58;63416.81;;;4.68;100.00
6833;BME280;3454;42.654;23.378;2024-01-27T08:32:24;63436.94;;;4.87;100.00
6833;BME280;3454;42.654;23.378;2024-01-27T08:34:49;63444.88;;;4.92;100.00
6833;BME280;3454;42.654;23.378;2024-01-27T08:37:18;63463.06;;;5.11;99.34
6833;BME280;3454;42.654;23.378;2024-01-27T08:39:44;63478.00;;;5.27;97.54
6833;BME280;3454;42.654;23.378;2024-01-27T08:42:11;63473.41;;;5.21;96.60
6833;BME280;3454;42.654;23.378;2024-01-27T08:44:37;63520.22;;;5.64;94.93
6833;BME280;3454;42.654;23.378;2024-01-27T08:47:03;63525.13;;;5.68;92.86
6833;BME280;3454;42.654;23.378;2024-01-27T08:49:29;63541.16;;;5.85;91.32
6833;BME280;3454;42.654;23.378;2024-01-27T08:51:55;63564.03;;;6.07;89.98
6833;BME280;3454;42.654;23.378;2024-01-27T08:54:21;63560.22;;;6.03;90.18
6833;BME280;3454;42.654;23.378;2024-01-27T08:56:47;63592.13;;;6.30;89.01
6833;BME280;3454;42.654;23.378;2024-01-27T08:59:13;63604.13;;;6.41;86.80
6833;BME280;3454;42.654;23.378;2024-01-27T09:01:38;63629.41;;;6.67;85.75
6833;BME280;3454;42.654;23.378;2024-01-27T09:04:04;63635.97;;;6.73;85.52
6833;BME280;3454;42.654;23.378;2024-01-27T09:06:29;63624.53;;;6.62;84.50
6833;BME280;3454;42.654;23.378;2024-01-27T09:08:55;63584.19;;;6.25;85.65
6833;BME280;3454;42.654;23.378;2024-01-27T09:11:21;63597.59;;;6.35;85.62
6833;BME280;3454;42.654;23.378;2024-01-27T09:13:52;63597.50;;;6.40;84.25
6833;BME280;3454;42.654;23.378;2024-01-27T09:16:18;63624.53;;;6.62;83.42
6833;BME280;3454;42.654;23.378;2024-01-27T09:18:44;63602.50;;;6.40;82.15
6833;BME280;3454;42.654;23.378;2024-01-27T09:21:11;63612.84;;;6.49;82.03
6833;BME280;3454;42.654;23.378;2024-01-27T09:23:37;63608.50;;;6.45;82.67
6833;BME280;3454;42.654;23.378;2024-01-27T09:26:03;63600.84;;;6.38;81.82
6833;BME280;3454;42.654;23.378;2024-01-27T09:28:29;63610.13;;;6.47;82.45
6833;BME280;3454;42.654;23.378;2024-01-27T09:30:55;63639.00;;;6.73;81.04
6833;BME280;3454;42.654;23.378;2024-01-27T09:33:21;63635.53;;;6.68;80.99
6833;BME280;3454;42.654;23.378;2024-01-27T09:35:52;63593.78;;;6.32;82.52
6833;BME280;3454;42.654;23.378;2024-01-27T09:38:18;63615.81;;;6.54;80.41
6833;BME280;3454;42.654;23.378;2024-01-27T09:40:46;63657.56;;;6.91;79.44
6833;BME280;3454;42.654;23.378;2024-01-27T09:43:13;63651.44;;;6.90;78.94
6833;BME280;3454;42.654;23.378;2024-01-27T09:45:39;63679.38;;;7.11;78.55
6833;BME280;3454;42.654;23.378;2024-01-27T09:48:07;63691.91;;;7.22;78.69
6833;BME280;3454;42.654;23.378;2024-01-27T09:50:34;63567.53;;;6.12;83.01
6833;BME280;3454;42.654;23.378;2024-01-27T09:53:00;63589.44;;;6.28;85.55
6833;BME280;3454;42.654;23.378;2024-01-27T09:55:26;63559.44;;;6.00;83.69
6833;BME280;3454;42.654;23.378;2024-01-27T09:57:52;63538.75;;;5.81;87.82
6833;BME280;3454;42.654;23.378;2024-01-27T10:00:19;63650.47;;;6.84;100.00
6833;BME280;3454;42.654;23.378;2024-01-27T10:02:54;63620.69;;;6.59;85.02
6833;BME280;3454;42.654;23.378;2024-01-27T10:05:20;63526.22;;;5.69;87.29
6833;BME280;3454;42.654;23.378;2024-01-27T10:07:46;63520.75;;;5.64;89.83
6833;BME280;3454;42.654;23.378;2024-01-27T10:10:11;63558.03;;;6.01;87.06
6833;BME280;3454;42.654;23.378;2024-01-27T10:12:41;63580.38;;;6.22;85.30
6833;BME280;3454;42.654;23.378;2024-01-27T10:15:20;63549.31;;;5.93;86.34
6833;BME280;3454;42.654;23.378;2024-01-27T10:17:46;63523.50;;;5.67;87.92
6833;BME280;3454;42.654;23.378;2024-01-27T10:20:11;63507.69;;;5.52;92.07
6833;BME280;3454;42.654;23.378;2024-01-27T10:22:41;63666.28;;;6.99;100.00
6833;BME280;3454;42.654;23.378;2024-01-27T10:25:08;63610.13;;;6.47;83.95
6833;BME280;3454;42.654;23.378;2024-01-27T10:27:34;63523.50;;;5.67;90.49
6833;BME280;3454;42.654;23.378;2024-01-27T10:30:00;63483.50;;;5.28;94.05
6833;BME280;3454;42.654;23.378;2024-01-27T10:32:26;63485.69;;;5.30;93.39
6833;BME280;3454;42.654;23.378;2024-01-27T10:35:07;63477.13;;;5.29;94.95
6833;BME280;3454;42.654;23.378;2024-01-27T10:37:36;63451.09;;;5.00;94.93
6833;BME280;3454;42.654;23.378;2024-01-27T10:40:06;63448.03;;;4.99;96.25
6833;BME280;3454;42.654;23.378;2024-01-27T10:42:36;63452.16;;;5.01;96.83
6833;BME280;3454;42.654;23.378;2024-01-27T10:45:03;63452.41;;;5.03;96.67
6833;BME280;3454;42.654;23.378;2024-01-27T10:47:30;63463.28;;;5.13;95.86
6833;BME280;3454;42.654;23.378;2024-01-27T10:49:58;63453.81;;;5.02;96.27
6833;BME280;3454;42.654;23.378;2024-01-27T10:52:31;63469.50;;;5.22;94.34
6833;BME280;3454;42.654;23.378;2024-01-27T10:55:03;63465.47;;;5.16;95.02
6833;BME280;3454;42.654;23.378;2024-01-27T10:57:36;63462.19;;;5.13;95.76
6833;BME280;3454;42.654;23.378;2024-01-27T11:00:06;63450.22;;;5.01;95.62
6833;BME280;3454;42.654;23.378;2024-01-27T11:02:34;63444.78;;;4.96;96.93
6833;BME280;3454;42.654;23.378;2024-01-27T11:05:02;63458.50;;;5.04;97.81
6833;BME280;3454;42.654;23.378;2024-01-27T11:07:33;63431.19;;;4.84;98.89
6833;BME280;3454;42.654;23.378;2024-01-27T11:09:58;63427.91;;;4.81;99.70
6833;BME280;3454;42.654;23.378;2024-01-27T11:12:25;63422.47;;;4.76;100.00
6833;BME280;3454;42.654;23.378;2024-01-27T11:14:52;63421.69;;;4.73;100.00
6833;BME280;3454;42.654;23.378;2024-01-27T11:17:19;63416.28;;;4.68;100.00
6833;BME280;3454;42.654;23.378;2024-01-27T11:19:45;63410.19;;;4.67;100.00
6833;BME280;3454;42.654;23.378;2024-01-27T11:25:17;63411.59;;;4.66;100.00
6833;BME280;3454;42.654;23.378;2024-01-27T11:27:45;63432.06;;;4.82;100.00
6833;BME280;3454;42.654;23.378;2024-01-27T11:30:31;63427.16;;;4.78;100.00
6833;BME280;3454;42.654;23.378;2024-01-27T11:33:01;63414.31;;;4.68;100.00
6833;BME280;3454;42.654;23.378;2024-01-27T11:35:28;63401.03;;;4.54;100.00
6833;BME280;3454;42.654;23.378;2024-01-27T11:37:54;63392.34;;;4.46;100.00
6833;BME280;3454;42.654;23.378;2024-01-27T11:40:20;63391.03;;;4.42;100.00
6833;BME280;3454;42.654;23.378;2024-01-27T11:42:57;63384.41;;;4.41;100.00
6833;BME280;3454;42.654;23.378;2024-01-27T11:45:23;63400.50;;;4.53;100.00
6833;BME280;3454;42.654;23.378;2024-01-27T11:47:49;63387.13;;;4.43;100.00
6833;BME280;3454;42.654;23.378;2024-01-27T11:50:19;63383.66;;;4.38;100.00
6833;BME280;3454;42.654;23.378;2024-01-27T11:52:46;63368.41;;;4.23;100.00
6833;BME280;3454;42.654;23.378;2024-01-27T11:55:12;63377.66;;;4.32;100.00
6833;BME280;3454;42.654;23.378;2024-01-27T11:57:43;63375.69;;;4.33;100.00
6833;BME280;3454;42.654;23.378;2024-01-27T12:00:09;63382.03;;;4.36;100.00
6833;BME280;3454;42.654;23.378;2024-01-27T12:02:37;63379.72;;;4.39;100.00
6833;BME280;3454;42.654;23.378;2024-01-27T12:05:05;63391.78;;;4.45;100.00
6833;BME280;3454;42.654;23.378;2024-01-27T12:07:31;63388.44;;;4.47;100.00
6833;BME280;3454;42.654;23.378;2024-01-27T12:09:56;63396.94;;;4.52;98.86
6833;BME280;3454;42.654;23.378;2024-01-27T12:12:22;63408.88;;;4.63;97.23
6833;BME280;3454;42.654;23.378;2024-01-27T12:14:49;63409.97;;;4.64;96.45
6833;BME280;3454;42.654;23.378;2024-01-27T12:17:16;63484.28;;;5.31;100.00
6833;BME280;3454;42.654;23.378;2024-01-27T12:19:48;63484.84;;;5.31;91.32
6833;BME280;3454;42.654;23.378;2024-01-27T12:22:28;63492.38;;;5.43;90.68
6833;BME280;3454;42.654;23.378;2024-01-27T12:24:55;63505.19;;;5.52;87.39
6833;BME280;3454;42.654;23.378;2024-01-27T12:27:22;63519.91;;;5.66;87.28
6833;BME280;3454;42.654;23.378;2024-01-27T12:29:49;63513.16;;;5.57;86.09
6833;BME280;3454;42.654;23.378;2024-01-27T12:32:18;63531.88;;;5.77;84.39
6833;BME280;3454;42.654;23.378;2024-01-27T12:34:44;63548.22;;;5.92;83.23
6833;BME280;3454;42.654;23.378;2024-01-27T12:37:13;63546.91;;;5.88;82.22
6833;BME280;3454;42.654;23.378;2024-01-27T12:39:45;63547.16;;;5.91;82.84
6833;BME280;3454;42.654;23.378;2024-01-27T12:42:11;63548.22;;;5.92;82.26
6833;BME280;3454;42.654;23.378;2024-01-27T12:44:37;63583.66;;;6.25;80.56
6833;BME280;3454;42.654;23.378;2024-01-27T12:47:03;63530.03;;;5.73;81.00
6833;BME280;3454;42.654;23.378;2024-01-27T12:49:29;63503.03;;;5.50;83.83
6833;BME280;3454;42.654;23.378;2024-01-27T12:51:55;63530.03;;;5.73;82.76
6833;BME280;3454;42.654;23.378;2024-01-27T12:54:21;63505.97;;;5.55;83.20
6833;BME280;3454;42.654;23.378;2024-01-27T12:56:46;63507.38;;;5.54;84.51
6833;BME280;3454;42.654;23.378;2024-01-27T12:59:12;63557.19;;;6.03;82.84
6833;BME280;3454;42.654;23.378;2024-01-27T13:01:39;63515.84;;;5.60;83.48
6833;BME280;3454;42.654;23.378;2024-01-27T13:04:05;63504.44;;;5.49;83.28
6833;BME280;3454;42.654;23.378;2024-01-27T13:06:31;63493.00;;;5.39;82.70
6833;BME280;3454;42.654;23.378;2024-01-27T13:08:56;63484.84;;;5.31;82.64
6833;BME280;3454;42.654;23.378;2024-01-27T13:11:22;63510.44;;;5.55;80.50
6833;BME280;3454;42.654;23.378;2024-01-27T13:13:47;63712.09;;;7.41;92.92
6833;BME280;3454;42.654;23.378;2024-01-27T13:16:13;63892.28;;;9.07;84.36